createdAt,value
2019-06-27T00:00:26.028Z,25.55
2019-06-27T00:02:58.052Z,25.49
2019-06-27T00:05:29.978Z,25.48
2019-06-27T00:08:02.099Z,25.46
2019-06-27T00:10:34.614Z,25.38
2019-06-27T00:13:06.615Z,25.31
2019-06-27T00:15:38.660Z,25.24
2019-06-27T00:18:10.666Z,25.13
2019-06-27T00:20:42.711Z,25.11
2019-06-27T00:23:14.632Z,25.02
2019-06-27T00:25:46.676Z,25.00
2019-06-27T00:28:18.661Z,25.00
2019-06-27T00:30:50.648Z,24.90
2019-06-27T00:33:22.606Z,24.85
2019-06-27T00:35:54.590Z,24.85
2019-06-27T00:38:26.567Z,24.81
2019-06-27T00:40:58.548Z,24.83
2019-06-27T00:43:30.573Z,24.84
2019-06-27T00:46:02.615Z,24.76
2019-06-27T00:48:34.571Z,24.72
2019-06-27T00:51:06.544Z,24.78
2019-06-27T00:53:38.517Z,24.81
2019-06-27T00:56:10.487Z,24.88
2019-06-27T00:58:42.459Z,24.85
2019-06-27T01:01:14.477Z,24.90
2019-06-27T01:03:46.444Z,24.92
2019-06-27T01:06:20.025Z,24.86
2019-06-27T01:08:52.000Z,24.79
2019-06-27T01:11:23.973Z,24.79
2019-06-27T01:13:55.937Z,24.70
2019-06-27T01:16:27.926Z,24.64
2019-06-27T01:18:59.929Z,24.65
2019-06-27T01:21:31.912Z,24.65
2019-06-27T01:24:03.880Z,24.64
2019-06-27T01:26:35.860Z,24.64
2019-06-27T01:29:07.831Z,24.71
2019-06-27T01:31:39.810Z,24.65
2019-06-27T01:34:11.816Z,24.64
2019-06-27T01:36:43.782Z,24.65
2019-06-27T01:39:15.755Z,24.58
2019-06-27T01:41:47.736Z,24.52
2019-06-27T01:44:38.641Z,24.51
2019-06-27T01:47:10.742Z,24.54
2019-06-27T01:49:42.706Z,24.48
2019-06-27T01:52:14.699Z,24.43
2019-06-27T01:54:46.652Z,24.41
2019-06-27T01:57:18.699Z,24.36
2019-06-27T01:59:50.677Z,24.41
2019-06-27T02:02:22.646Z,24.36
2019-06-27T02:04:54.630Z,24.34
2019-06-27T02:07:26.595Z,24.33
2019-06-27T02:09:58.596Z,24.31
2019-06-27T02:12:30.562Z,24.27
2019-06-27T02:15:02.691Z,24.28
2019-06-27T02:17:34.659Z,24.30
2019-06-27T02:20:06.897Z,24.26
2019-06-27T02:22:38.840Z,24.25
2019-06-27T02:25:11.717Z,24.18
2019-06-27T02:27:43.665Z,24.14
2019-06-27T02:30:20.979Z,24.03
2019-06-27T02:32:52.934Z,24.01
2019-06-27T02:35:24.930Z,24.00
2019-06-27T02:37:56.898Z,24.02
2019-06-27T02:40:28.884Z,24.04
2019-06-27T02:43:00.856Z,23.94
2019-06-27T02:45:32.828Z,23.88
2019-06-27T02:48:04.774Z,23.88
2019-06-27T02:50:36.760Z,23.83
2019-06-27T02:53:08.733Z,23.81
2019-06-27T02:55:40.705Z,23.80
2019-06-27T02:58:28.595Z,23.66
2019-06-27T03:00:46.555Z,23.62
2019-06-27T03:03:18.508Z,23.64
2019-06-27T03:05:50.496Z,23.69
2019-06-27T03:08:22.446Z,23.67
2019-06-27T03:10:54.477Z,23.72
2019-06-27T03:13:26.425Z,23.71
2019-06-27T03:15:58.403Z,23.67
2019-06-27T03:18:30.375Z,23.66
2019-06-27T03:21:02.355Z,23.67
2019-06-27T03:23:34.298Z,23.68
2019-06-27T03:26:06.558Z,23.65
2019-06-27T03:28:52.261Z,23.69
2019-06-27T03:31:12.546Z,23.75
2019-06-27T03:33:44.526Z,23.70
2019-06-27T03:36:16.505Z,23.65
2019-06-27T03:38:48.477Z,23.64
2019-06-27T03:41:20.451Z,23.72
2019-06-27T03:43:52.411Z,23.72
2019-06-27T03:46:24.470Z,23.67
2019-06-27T03:48:56.429Z,23.74
2019-06-27T03:51:28.452Z,23.81
2019-06-27T03:54:00.421Z,23.79
2019-06-27T03:56:32.430Z,23.76
2019-06-27T03:59:12.472Z,23.85
2019-06-27T04:01:38.269Z,23.82
2019-06-27T04:04:10.307Z,23.74
2019-06-27T04:06:42.289Z,23.63
2019-06-27T04:09:14.266Z,23.53
2019-06-27T04:11:46.414Z,23.58
2019-06-27T04:14:18.395Z,23.59
2019-06-27T04:16:50.393Z,23.62
2019-06-27T04:19:22.344Z,23.63
2019-06-27T04:21:54.641Z,23.68
2019-06-27T04:24:26.611Z,23.81
2019-06-27T04:26:58.624Z,23.88
2019-06-27T04:29:34.120Z,23.83
2019-06-27T04:32:04.468Z,23.84
2019-06-27T04:34:36.435Z,23.97
2019-06-27T04:37:08.568Z,23.99
2019-06-27T04:39:40.528Z,24.07
2019-06-27T04:42:12.697Z,24.12
2019-06-27T04:44:44.776Z,24.23
2019-06-27T04:47:16.875Z,24.41
2019-06-27T04:49:48.974Z,24.69
2019-06-27T04:52:21.001Z,25.03
2019-06-27T04:54:54.280Z,25.37
2019-06-27T04:57:26.354Z,25.74
2019-06-27T04:59:58.307Z,26.13
2019-06-27T05:02:30.981Z,26.50
2019-06-27T05:05:03.088Z,26.90
2019-06-27T05:07:35.089Z,27.26
2019-06-27T05:10:07.058Z,27.50
2019-06-27T05:12:39.154Z,27.73
2019-06-27T05:15:11.819Z,28.01
2019-06-27T05:17:43.803Z,28.25
2019-06-27T05:20:16.670Z,28.48
2019-06-27T05:22:48.688Z,28.69
2019-06-27T05:25:20.648Z,28.80
2019-06-27T05:27:52.898Z,28.71
2019-06-27T05:30:24.867Z,28.99
2019-06-27T05:32:56.859Z,29.30
2019-06-27T05:35:28.822Z,29.66
2019-06-27T05:38:00.852Z,29.97
2019-06-27T05:40:32.836Z,30.14
2019-06-27T05:43:05.672Z,30.22
2019-06-27T05:45:37.644Z,30.41
2019-06-27T05:48:09.672Z,30.54
2019-06-27T05:50:41.710Z,30.46
2019-06-27T05:53:13.649Z,30.72
2019-06-27T05:55:45.742Z,30.92
2019-06-27T05:58:17.725Z,31.10
2019-06-27T06:00:49.682Z,31.45
2019-06-27T06:03:21.677Z,31.65
2019-06-27T06:05:53.652Z,31.91
2019-06-27T06:08:25.626Z,32.37
2019-06-27T06:10:57.576Z,32.60
2019-06-27T06:13:29.562Z,32.77
2019-06-27T06:16:01.676Z,32.94
2019-06-27T06:18:33.707Z,33.29
2019-06-27T06:21:05.691Z,33.40
2019-06-27T06:23:37.696Z,33.68
2019-06-27T06:26:09.661Z,33.97
2019-06-27T06:28:41.671Z,33.93
2019-06-27T06:31:13.668Z,34.16
2019-06-27T06:33:45.652Z,34.53
2019-06-27T06:36:17.573Z,34.57
2019-06-27T06:38:49.757Z,34.51
2019-06-27T06:41:21.743Z,34.90
2019-06-27T06:43:53.799Z,34.97
2019-06-27T06:46:25.771Z,35.32
2019-06-27T06:48:57.835Z,35.47
2019-06-27T06:51:29.837Z,35.71
2019-06-27T06:54:02.341Z,35.67
2019-06-27T06:56:34.404Z,35.79
2019-06-27T06:59:06.401Z,35.91
2019-06-27T07:01:38.368Z,35.86
2019-06-27T07:04:10.340Z,35.99
2019-06-27T07:06:42.331Z,36.23
2019-06-27T07:09:14.338Z,36.20
2019-06-27T07:11:46.298Z,36.65
2019-06-27T07:14:18.274Z,36.62
2019-06-27T07:16:50.253Z,36.66
2019-06-27T07:19:22.232Z,36.70
2019-06-27T07:21:54.187Z,36.71
2019-06-27T07:24:26.180Z,36.98
2019-06-27T07:26:58.124Z,37.11
2019-06-27T07:29:30.115Z,37.27
2019-06-27T07:32:02.081Z,37.28
2019-06-27T07:34:34.061Z,37.48
2019-06-27T07:37:06.054Z,37.39
2019-06-27T07:39:38.046Z,37.45
2019-06-27T07:42:10.017Z,37.63
2019-06-27T07:44:42.009Z,37.68
2019-06-27T07:47:13.970Z,37.73
2019-06-27T07:49:45.937Z,37.92
2019-06-27T07:52:17.906Z,38.11
2019-06-27T07:54:49.967Z,38.17
2019-06-27T07:57:21.912Z,38.21
2019-06-27T07:59:53.900Z,38.24
2019-06-27T08:02:25.923Z,38.62
2019-06-27T08:04:57.971Z,38.53
2019-06-27T08:07:29.957Z,38.62
2019-06-27T08:10:02.083Z,38.65
2019-06-27T08:12:34.222Z,38.76
2019-06-27T08:15:06.502Z,38.83
2019-06-27T08:17:38.495Z,39.01
2019-06-27T08:20:10.429Z,39.28
2019-06-27T08:22:42.413Z,39.22
2019-06-27T08:25:14.567Z,38.59
2019-06-27T08:27:46.562Z,38.44
2019-06-27T08:30:18.919Z,38.21
2019-06-27T08:32:50.910Z,38.08
2019-06-27T08:35:22.872Z,37.68
2019-06-27T08:37:54.877Z,37.64
2019-06-27T08:40:26.918Z,37.59
2019-06-27T08:42:58.900Z,37.05
2019-06-27T08:45:30.915Z,36.93
2019-06-27T08:48:02.946Z,37.02
2019-06-27T08:50:34.909Z,37.05
2019-06-27T08:53:06.892Z,36.74
2019-06-27T08:55:38.836Z,36.60
2019-06-27T08:58:10.846Z,36.39
2019-06-27T09:00:45.820Z,36.24
2019-06-27T09:03:16.885Z,36.25
2019-06-27T09:05:48.834Z,36.33
2019-06-27T09:08:20.824Z,36.25
2019-06-27T09:10:52.819Z,36.18
2019-06-27T09:13:24.833Z,36.42
2019-06-27T09:15:56.841Z,36.42
2019-06-27T09:18:28.820Z,36.34
2019-06-27T09:21:00.862Z,36.12
2019-06-27T09:23:32.912Z,36.31
2019-06-27T09:26:04.883Z,36.26
2019-06-27T09:28:36.868Z,36.22
2019-06-27T09:31:08.873Z,36.38
2019-06-27T09:33:40.840Z,36.14
2019-06-27T09:36:12.807Z,36.22
2019-06-27T09:38:44.783Z,36.01
2019-06-27T09:41:16.833Z,35.84
2019-06-27T09:43:48.959Z,36.09
2019-06-27T09:46:20.938Z,36.26
2019-06-27T09:48:52.920Z,36.20
2019-06-27T09:51:24.880Z,36.20
2019-06-27T09:53:56.854Z,36.34
2019-06-27T09:56:28.807Z,36.38
2019-06-27T09:59:00.786Z,36.29
2019-06-27T10:01:32.755Z,36.38
2019-06-27T10:04:04.814Z,36.02
2019-06-27T10:06:36.772Z,35.99
2019-06-27T10:09:08.768Z,35.94
2019-06-27T10:11:40.734Z,35.98
2019-06-27T10:14:12.751Z,35.82
2019-06-27T10:16:44.750Z,35.85
2019-06-27T10:19:16.846Z,35.71
2019-06-27T10:21:48.815Z,35.46
2019-06-27T10:24:20.823Z,35.49
2019-06-27T10:26:52.828Z,35.63
2019-06-27T10:29:24.824Z,35.67
2019-06-27T10:31:56.807Z,35.71
2019-06-27T10:34:28.790Z,35.65
2019-06-27T10:37:00.726Z,35.58
2019-06-27T10:39:32.763Z,35.57
2019-06-27T10:42:04.723Z,35.70
2019-06-27T10:44:36.751Z,35.69
2019-06-27T10:47:08.695Z,35.43
2019-06-27T10:49:40.687Z,35.53
2019-06-27T10:52:12.756Z,35.63
2019-06-27T10:54:44.733Z,35.71
2019-06-27T10:57:16.820Z,35.52
2019-06-27T10:59:48.764Z,35.63
2019-06-27T11:02:20.812Z,35.57
2019-06-27T11:04:52.774Z,35.52
2019-06-27T11:07:24.876Z,35.62
2019-06-27T11:09:56.873Z,35.60
2019-06-27T11:12:28.963Z,35.64
2019-06-27T11:15:00.941Z,35.48
2019-06-27T11:17:32.950Z,35.52
2019-06-27T11:20:04.931Z,35.51
2019-06-27T11:22:36.928Z,35.51
2019-06-27T11:25:09.263Z,35.47
2019-06-27T11:27:41.244Z,35.48
2019-06-27T11:30:13.320Z,35.59
2019-06-27T11:32:45.329Z,35.59
2019-06-27T11:35:17.321Z,35.56
2019-06-27T11:37:49.308Z,35.59
2019-06-27T11:40:23.100Z,35.49
2019-06-27T11:42:55.109Z,35.49
2019-06-27T11:45:27.128Z,35.56
2019-06-27T11:47:59.176Z,35.56
2019-06-27T11:50:31.140Z,35.42
2019-06-27T11:53:03.094Z,35.36
2019-06-27T11:55:35.128Z,35.44
2019-06-27T11:58:07.249Z,35.18
2019-06-27T12:00:39.273Z,35.18
2019-06-27T12:03:11.260Z,35.11
2019-06-27T12:05:43.264Z,35.07
2019-06-27T12:08:15.245Z,35.03
2019-06-27T12:10:47.286Z,35.01
2019-06-27T12:13:19.209Z,34.96
2019-06-27T12:15:51.763Z,34.94
2019-06-27T12:18:23.881Z,35.10
2019-06-27T12:20:55.873Z,35.08
2019-06-27T12:23:27.845Z,35.00
2019-06-27T12:25:59.838Z,34.76
2019-06-27T12:28:31.892Z,34.80
2019-06-27T12:31:19.456Z,34.86
2019-06-27T12:33:37.775Z,34.84
2019-06-27T12:36:09.795Z,34.72
2019-06-27T12:38:41.800Z,34.83
2019-06-27T12:41:13.827Z,34.91
2019-06-27T12:43:45.808Z,35.03
2019-06-27T12:46:17.800Z,35.14
2019-06-27T12:48:49.795Z,34.99
2019-06-27T12:51:21.919Z,34.86
2019-06-27T12:53:56.049Z,34.84
2019-06-27T12:56:27.867Z,34.89
2019-06-27T12:58:59.868Z,35.14
2019-06-27T13:01:31.842Z,35.21
2019-06-27T13:04:03.970Z,35.21
2019-06-27T13:06:35.966Z,35.32
2019-06-27T13:09:07.995Z,35.32
2019-06-27T13:11:39.970Z,35.11
2019-06-27T13:14:11.986Z,35.07
2019-06-27T13:16:43.956Z,35.02
2019-06-27T13:19:15.940Z,34.98
2019-06-27T13:21:47.944Z,34.90
2019-06-27T13:24:19.949Z,34.80
2019-06-27T13:26:51.942Z,34.71
2019-06-27T13:29:26.830Z,34.90
2019-06-27T13:31:57.851Z,34.94
2019-06-27T13:34:39.944Z,35.01
2019-06-27T13:37:03.846Z,35.04
2019-06-27T13:39:35.863Z,35.02
2019-06-27T13:42:07.905Z,34.92
2019-06-27T13:44:40.985Z,34.90
2019-06-27T13:47:12.992Z,34.84
2019-06-27T13:49:45.475Z,34.81
2019-06-27T13:52:17.543Z,34.62
2019-06-27T13:54:49.510Z,34.65
2019-06-27T13:57:21.811Z,34.65
2019-06-27T13:59:53.819Z,34.53
2019-06-27T14:02:25.806Z,34.54
2019-06-27T14:04:58.046Z,34.35
2019-06-27T14:07:30.071Z,34.36
2019-06-27T14:10:02.126Z,34.33
2019-06-27T14:12:34.117Z,34.24
2019-06-27T14:15:06.444Z,34.15
2019-06-27T14:17:38.461Z,34.09
2019-06-27T14:20:10.519Z,34.11
2019-06-27T14:22:42.500Z,33.91
2019-06-27T14:25:14.720Z,33.74
2019-06-27T14:27:46.715Z,33.71
2019-06-27T14:30:18.918Z,33.64
2019-06-27T14:32:53.221Z,33.76
2019-06-27T14:35:24.789Z,33.76
2019-06-27T14:37:56.760Z,33.74
2019-06-27T14:40:28.727Z,33.48
2019-06-27T14:43:00.706Z,33.35
2019-06-27T14:45:32.747Z,33.41
2019-06-27T14:48:04.717Z,33.34
2019-06-27T14:50:36.740Z,33.45
2019-06-27T14:53:08.749Z,33.46
2019-06-27T14:55:40.748Z,33.23
2019-06-27T14:58:12.790Z,33.20
2019-06-27T15:00:44.813Z,33.08
2019-06-27T15:03:16.789Z,32.97
2019-06-27T15:05:48.759Z,33.01
2019-06-27T15:08:20.716Z,32.96
2019-06-27T15:10:52.708Z,32.85
2019-06-27T15:13:24.676Z,32.88
2019-06-27T15:16:10.780Z,32.80
2019-06-27T15:18:30.612Z,32.79
2019-06-27T15:21:02.653Z,32.71
2019-06-27T15:23:34.623Z,32.56
2019-06-27T15:26:06.721Z,32.56
2019-06-27T15:28:38.764Z,32.58
2019-06-27T15:31:10.765Z,32.59
2019-06-27T15:33:42.737Z,32.66
2019-06-27T15:36:14.874Z,32.63
2019-06-27T15:38:46.846Z,32.69
2019-06-27T15:41:18.981Z,32.62
2019-06-27T15:43:50.992Z,32.65
2019-06-27T15:46:23.080Z,32.42
2019-06-27T15:48:55.021Z,32.49
2019-06-27T15:51:27.078Z,32.51
2019-06-27T15:53:59.045Z,32.53
2019-06-27T15:56:31.155Z,32.50
2019-06-27T15:59:03.881Z,32.36
2019-06-27T16:01:36.169Z,32.39
2019-06-27T16:04:08.153Z,32.39
2019-06-27T16:06:40.198Z,32.27
2019-06-27T16:09:12.191Z,32.30
2019-06-27T16:11:44.338Z,32.26
2019-06-27T16:14:16.367Z,32.17
2019-06-27T16:16:48.370Z,32.12
2019-06-27T16:19:20.355Z,32.17
2019-06-27T16:21:52.355Z,32.19
2019-06-27T16:24:24.361Z,32.13
2019-06-27T16:26:56.425Z,32.07
2019-06-27T16:29:28.453Z,32.06
2019-06-27T16:32:00.672Z,31.96
2019-06-27T16:34:32.679Z,31.85
2019-06-27T16:37:04.843Z,31.82
2019-06-27T16:39:39.005Z,31.83
2019-06-27T16:42:10.804Z,31.80
2019-06-27T16:44:42.787Z,31.77
2019-06-27T16:47:14.972Z,31.82
2019-06-27T16:49:46.909Z,31.79
2019-06-27T16:52:18.949Z,31.85
2019-06-27T16:54:50.925Z,31.70
2019-06-27T16:57:23.024Z,31.68
2019-06-27T16:59:55.014Z,31.64
2019-06-27T17:02:27.181Z,31.61
2019-06-27T17:04:59.156Z,31.56
2019-06-27T17:07:31.181Z,31.44
2019-06-27T17:10:03.429Z,31.46
2019-06-27T17:12:35.416Z,31.51
2019-06-27T17:15:08.716Z,31.43
2019-06-27T17:17:40.738Z,31.30
2019-06-27T17:20:12.834Z,31.27
2019-06-27T17:22:44.858Z,31.22
2019-06-27T17:25:16.837Z,31.31
2019-06-27T17:27:48.838Z,31.19
2019-06-27T17:30:21.368Z,31.12
2019-06-27T17:32:53.398Z,31.04
2019-06-27T17:35:25.420Z,31.08
2019-06-27T17:37:57.437Z,30.92
2019-06-27T17:40:29.537Z,30.88
2019-06-27T17:43:01.596Z,30.87
2019-06-27T17:45:33.575Z,30.95
2019-06-27T17:48:05.592Z,30.90
2019-06-27T17:50:37.590Z,30.90
2019-06-27T17:53:09.604Z,30.77
2019-06-27T17:55:41.639Z,30.58
2019-06-27T17:58:13.638Z,30.56
2019-06-27T18:00:45.729Z,30.55
2019-06-27T18:03:17.753Z,30.49
2019-06-27T18:05:49.836Z,30.38
2019-06-27T18:08:21.818Z,30.39
2019-06-27T18:10:53.821Z,30.30
2019-06-27T18:13:25.803Z,30.18
2019-06-27T18:15:57.853Z,30.11
2019-06-27T18:18:29.877Z,30.15
2019-06-27T18:21:01.895Z,30.02
2019-06-27T18:23:33.917Z,29.79
2019-06-27T18:26:05.935Z,29.56
2019-06-27T18:28:37.963Z,29.30
2019-06-27T18:31:09.953Z,29.16
2019-06-27T18:33:41.955Z,29.03
2019-06-27T18:36:13.951Z,28.89
2019-06-27T18:38:45.985Z,28.92
2019-06-27T18:41:17.983Z,28.96
2019-06-27T18:43:49.980Z,28.98
2019-06-27T18:46:22.000Z,28.93
2019-06-27T18:48:54.046Z,29.03
2019-06-27T18:51:26.098Z,28.88
2019-06-27T18:54:00.931Z,28.84
2019-06-27T18:56:32.023Z,28.82
2019-06-27T18:59:04.088Z,28.81
2019-06-27T19:01:36.234Z,28.81
2019-06-27T19:04:08.220Z,28.66
2019-06-27T19:06:40.235Z,28.56
2019-06-27T19:09:12.241Z,28.44
2019-06-27T19:11:44.293Z,28.36
2019-06-27T19:14:16.303Z,28.24
2019-06-27T19:16:48.296Z,28.20
2019-06-27T19:19:23.241Z,28.14
2019-06-27T19:22:23.707Z,27.96
2019-06-27T19:25:06.508Z,27.96
2019-06-27T19:27:38.519Z,27.89
2019-06-27T19:30:10.746Z,27.82
2019-06-27T19:32:42.891Z,27.74
2019-06-27T19:35:14.913Z,27.60
2019-06-27T19:38:00.966Z,27.56
2019-06-27T19:40:20.933Z,27.47
2019-06-27T19:42:52.952Z,27.38
2019-06-27T19:45:24.977Z,27.27
2019-06-27T19:47:56.992Z,27.23
2019-06-27T19:50:28.983Z,27.13
2019-06-27T19:53:01.051Z,27.08
2019-06-27T19:55:33.056Z,26.95
2019-06-27T19:58:05.091Z,26.86
2019-06-27T20:00:37.172Z,26.65
2019-06-27T20:03:09.176Z,26.53
2019-06-27T20:05:41.146Z,26.43
2019-06-27T20:08:19.449Z,26.31
2019-06-27T20:10:47.110Z,26.22
2019-06-27T20:13:19.126Z,26.19
2019-06-27T20:15:51.104Z,26.16
2019-06-27T20:18:23.143Z,25.99
2019-06-27T20:20:55.164Z,25.90
2019-06-27T20:23:27.254Z,25.81
2019-06-27T20:25:59.219Z,25.69
2019-06-27T20:28:31.263Z,25.68
2019-06-27T20:31:03.252Z,25.55
2019-06-27T20:33:35.242Z,25.44
2019-06-27T20:36:07.274Z,25.40
2019-06-27T20:38:39.337Z,25.31
2019-06-27T20:41:11.355Z,25.25
2019-06-27T20:43:43.421Z,25.12
2019-06-27T20:46:15.416Z,25.03
2019-06-27T20:48:47.442Z,24.98
2019-06-27T20:51:19.503Z,24.82
2019-06-27T20:53:51.520Z,24.78
2019-06-27T20:56:23.532Z,24.82
2019-06-27T20:58:55.570Z,24.72
2019-06-27T21:01:30.528Z,24.64
2019-06-27T21:04:01.583Z,24.48
2019-06-27T21:06:33.566Z,24.41
2019-06-27T21:09:05.615Z,24.22
2019-06-27T21:11:37.639Z,24.13
2019-06-27T21:14:09.708Z,24.02
2019-06-27T21:16:41.733Z,23.96
2019-06-27T21:19:13.712Z,23.94
2019-06-27T21:21:45.746Z,23.82
2019-06-27T21:24:17.770Z,23.78
2019-06-27T21:26:49.804Z,23.59
2019-06-27T21:29:21.775Z,23.55
2019-06-27T21:31:53.895Z,23.45
2019-06-27T21:34:25.899Z,23.48
2019-06-27T21:36:57.880Z,23.47
2019-06-27T21:39:29.859Z,23.29
2019-06-27T21:42:01.906Z,23.16
2019-06-27T21:44:33.895Z,23.23
2019-06-27T21:47:05.933Z,23.18
2019-06-27T21:49:37.974Z,23.05
2019-06-27T21:52:10.074Z,22.96
2019-06-27T21:54:42.074Z,22.94
2019-06-27T21:57:14.272Z,22.93
2019-06-27T21:59:46.379Z,22.72
2019-06-27T22:02:18.399Z,22.57
2019-06-27T22:04:50.365Z,22.58
2019-06-27T22:07:22.380Z,22.41
2019-06-27T22:09:54.356Z,22.35
2019-06-27T22:12:26.387Z,22.26
2019-06-27T22:14:58.388Z,22.19
2019-06-27T22:17:30.417Z,22.13
2019-06-27T22:20:14.595Z,21.91
2019-06-27T22:22:36.290Z,21.69
2019-06-27T22:25:09.059Z,21.56
2019-06-27T22:27:41.003Z,21.56
2019-06-27T22:30:13.333Z,21.49
2019-06-27T22:32:45.379Z,21.51
2019-06-27T22:35:17.380Z,21.52
2019-06-27T22:38:07.733Z,21.39
2019-06-27T22:40:58.027Z,21.36
2019-06-27T22:43:48.174Z,21.23
2019-06-27T22:46:38.397Z,21.10
2019-06-27T22:49:10.789Z,21.07
2019-06-27T22:52:02.648Z,21.00
2019-06-27T22:54:35.920Z,20.94
2019-06-27T22:57:07.924Z,20.88
2019-06-27T22:59:39.953Z,20.84
2019-06-27T23:02:11.949Z,20.76
2019-06-27T23:04:43.937Z,20.82
2019-06-27T23:07:15.892Z,20.78
2019-06-27T23:09:56.998Z,20.63
2019-06-27T23:12:21.751Z,20.57
2019-06-27T23:14:53.780Z,20.51
2019-06-27T23:17:25.738Z,20.47
2019-06-27T23:19:57.828Z,20.39
2019-06-27T23:22:29.764Z,20.20
2019-06-27T23:25:01.864Z,20.20
2019-06-27T23:27:33.964Z,20.20
2019-06-27T23:30:06.341Z,20.11
2019-06-27T23:32:38.450Z,20.08
2019-06-27T23:35:10.763Z,20.01
2019-06-27T23:37:42.701Z,19.86
2019-06-27T23:40:15.271Z,19.90
2019-06-27T23:42:47.304Z,19.89
2019-06-27T23:45:19.387Z,19.88
2019-06-27T23:47:51.330Z,19.81
2019-06-27T23:50:23.302Z,19.75
2019-06-27T23:52:55.270Z,19.73
2019-06-27T23:55:27.218Z,19.55
2019-06-27T23:57:59.191Z,19.50
